sensor_id;sensor_type;location;lat;lon;timestamp;pressure;altitude;pressure_sealevel;temperature;humidity
62680;BME280;74249;40.528;44.706;2023-11-22T00:01:41;80299.59;;;19.16;36.44
62680;BME280;74249;40.528;44.706;2023-11-22T00:03:42;80315.56;;;19.16;36.49
62680;BME280;74249;40.528;44.706;2023-11-22T00:05:42;80316.84;;;19.13;36.44
62680;BME280;74249;40.528;44.706;2023-11-22T00:07:43;80334.91;;;19.17;36.46
62680;BME280;74249;40.528;44.706;2023-11-22T00:09:43;80326.88;;;19.15;36.36
62680;BME280;74249;40.528;44.706;2023-11-22T00:11:44;80323.50;;;19.14;36.33
62680;BME280;74249;40.528;44.706;2023-11-22T00:13:44;80316.16;;;19.13;36.25
62680;BME280;74249;40.528;44.706;2023-11-22T00:15:45;80314.84;;;19.14;36.56
62680;BME280;74249;40.528;44.706;2023-11-22T00:17:46;80306.16;;;19.11;36.36
62680;BME280;74249;40.528;44.706;2023-11-22T00:19:47;80314.84;;;19.14;36.63
62680;BME280;74249;40.528;44.706;2023-11-22T00:21:48;80320.19;;;19.14;36.57
62680;BME280;74249;40.528;44.706;2023-11-22T00:23:49;80313.50;;;19.13;36.44
62680;BME280;74249;40.528;44.706;2023-11-22T00:25:49;80326.19;;;19.14;36.52
62680;BME280;74249;40.528;44.706;2023-11-22T00:27:52;80321.50;;;19.13;36.26
62680;BME280;74249;40.528;44.706;2023-11-22T00:29:53;80312.81;;;19.12;36.19
62680;BME280;74249;40.528;44.706;2023-11-22T00:31:53;80303.47;;;19.11;36.18
62680;BME280;74249;40.528;44.706;2023-11-22T00:33:54;80304.16;;;19.12;36.30
62680;BME280;74249;40.528;44.706;2023-11-22T00:35:54;80320.81;;;19.12;36.03
62680;BME280;74249;40.528;44.706;2023-11-22T00:37:57;80298.81;;;19.12;36.34
62680;BME280;74249;40.528;44.706;2023-11-22T00:39:58;80300.13;;;19.11;36.29
62680;BME280;74249;40.528;44.706;2023-11-22T00:42:00;80288.13;;;19.10;36.20
62680;BME280;74249;40.528;44.706;2023-11-22T00:44:01;80290.16;;;19.11;36.02
62680;BME280;74249;40.528;44.706;2023-11-22T00:46:01;80299.50;;;19.12;36.08
62680;BME280;74249;40.528;44.706;2023-11-22T00:48:02;80293.50;;;19.12;36.03
62680;BME280;74249;40.528;44.706;2023-11-22T00:50:03;80297.47;;;19.11;36.12
62680;BME280;74249;40.528;44.706;2023-11-22T00:52:06;80306.09;;;19.09;35.87
62680;BME280;74249;40.528;44.706;2023-11-22T00:54:07;80298.16;;;19.11;36.11
62680;BME280;74249;40.528;44.706;2023-11-22T00:56:08;80301.47;;;19.10;35.88
62680;BME280;74249;40.528;44.706;2023-11-22T00:58:08;80296.78;;;19.10;35.86
62680;BME280;74249;40.528;44.706;2023-11-22T01:00:09;80301.47;;;19.10;36.08
62680;BME280;74249;40.528;44.706;2023-11-22T01:02:11;80319.41;;;19.09;35.96
62680;BME280;74249;40.528;44.706;2023-11-22T01:04:11;80316.09;;;19.09;35.96
62680;BME280;74249;40.528;44.706;2023-11-22T01:06:12;80316.09;;;19.09;36.21
62680;BME280;74249;40.528;44.706;2023-11-22T01:08:13;80320.09;;;19.10;36.01
62680;BME280;74249;40.528;44.706;2023-11-22T01:10:14;80318.06;;;19.08;36.19
62680;BME280;74249;40.528;44.706;2023-11-22T01:12:15;80316.75;;;19.09;36.25
62680;BME280;74249;40.528;44.706;2023-11-22T01:14:16;80313.41;;;19.09;35.95
62680;BME280;74249;40.528;44.706;2023-11-22T01:16:16;80332.06;;;19.09;36.18
62680;BME280;74249;40.528;44.706;2023-11-22T01:18:17;80336.69;;;19.08;35.98
62680;BME280;74249;40.528;44.706;2023-11-22T01:20:17;80334.72;;;19.09;35.96
62680;BME280;74249;40.528;44.706;2023-11-22T01:22:19;80342.72;;;19.09;36.11
62680;BME280;74249;40.528;44.706;2023-11-22T01:24:20;80357.34;;;19.08;35.90
62680;BME280;74249;40.528;44.706;2023-11-22T01:26:21;80356.66;;;19.07;35.98
62680;BME280;74249;40.528;44.706;2023-11-22T01:28:21;80354.00;;;19.07;35.98
62680;BME280;74249;40.528;44.706;2023-11-22T01:30:22;80356.00;;;19.07;35.95
62680;BME280;74249;40.528;44.706;2023-11-22T01:32:23;80364.03;;;19.09;35.99
62680;BME280;74249;40.528;44.706;2023-11-22T01:34:24;80387.31;;;19.08;35.87
62680;BME280;74249;40.528;44.706;2023-11-22T01:36:26;80374.63;;;19.07;36.06
62680;BME280;74249;40.528;44.706;2023-11-22T01:38:27;80379.97;;;19.07;35.98
62680;BME280;74249;40.528;44.706;2023-11-22T01:40:28;80388.63;;;19.07;35.89
62680;BME280;74249;40.528;44.706;2023-11-22T01:42:29;80386.59;;;19.06;36.00
62680;BME280;74249;40.528;44.706;2023-11-22T01:44:29;80380.59;;;19.05;36.10
62680;BME280;74249;40.528;44.706;2023-11-22T01:46:30;80389.97;;;19.08;36.07
62680;BME280;74249;40.528;44.706;2023-11-22T01:48:31;80388.00;;;19.09;36.06
62680;BME280;74249;40.528;44.706;2023-11-22T01:50:32;80384.03;;;19.10;35.91
62680;BME280;74249;40.528;44.706;2023-11-22T01:52:33;80390.72;;;19.11;35.94
62680;BME280;74249;40.528;44.706;2023-11-22T01:54:34;80383.41;;;19.11;35.97
62680;BME280;74249;40.528;44.706;2023-11-22T01:56:36;80388.09;;;19.13;35.89
62680;BME280;74249;40.528;44.706;2023-11-22T01:58:37;80386.72;;;19.12;36.17
62680;BME280;74249;40.528;44.706;2023-11-22T02:00:58;80385.44;;;19.13;36.20
62680;BME280;74249;40.528;44.706;2023-11-22T02:02:59;80382.09;;;19.12;36.14
62680;BME280;74249;40.528;44.706;2023-11-22T02:05:00;80384.03;;;19.10;36.19
62680;BME280;74249;40.528;44.706;2023-11-22T02:07:01;80390.75;;;19.13;36.22
62680;BME280;74249;40.528;44.706;2023-11-22T02:09:01;80390.72;;;19.11;36.00
62680;BME280;74249;40.528;44.706;2023-11-22T02:11:02;80392.69;;;19.10;35.97
62680;BME280;74249;40.528;44.706;2023-11-22T02:13:04;80394.06;;;19.11;35.96
62680;BME280;74249;40.528;44.706;2023-11-22T02:15:07;80394.06;;;19.11;35.84
62680;BME280;74249;40.528;44.706;2023-11-22T02:17:07;80390.56;;;19.05;36.17
62680;BME280;74249;40.528;44.706;2023-11-22T02:19:14;80391.28;;;19.07;36.06
62680;BME280;74249;40.528;44.706;2023-11-22T02:21:18;80398.63;;;19.07;36.07
62680;BME280;74249;40.528;44.706;2023-11-22T02:23:19;80399.91;;;19.06;36.06
62680;BME280;74249;40.528;44.706;2023-11-22T02:25:20;80397.25;;;19.06;36.08
62680;BME280;74249;40.528;44.706;2023-11-22T02:27:20;80394.59;;;19.06;36.12
62680;BME280;74249;40.528;44.706;2023-11-22T02:29:21;80394.53;;;19.03;35.96
62680;BME280;74249;40.528;44.706;2023-11-22T02:31:22;80401.22;;;19.05;36.12
62680;BME280;74249;40.528;44.706;2023-11-22T02:33:24;80399.91;;;19.06;36.07
62680;BME280;74249;40.528;44.706;2023-11-22T02:35:25;80413.25;;;19.06;36.29
62680;BME280;74249;40.528;44.706;2023-11-22T02:37:27;80411.88;;;19.05;36.03
62680;BME280;74249;40.528;44.706;2023-11-22T02:39:35;80418.56;;;19.06;36.22
62680;BME280;74249;40.528;44.706;2023-11-22T02:41:41;80425.19;;;19.05;36.27
62680;BME280;74249;40.528;44.706;2023-11-22T02:43:41;80431.88;;;19.06;36.12
62680;BME280;74249;40.528;44.706;2023-11-22T02:45:42;80418.56;;;19.06;36.08
62680;BME280;74249;40.528;44.706;2023-11-22T02:47:44;80418.56;;;19.06;36.18
62680;BME280;74249;40.528;44.706;2023-11-22T02:49:47;80422.53;;;19.05;36.05
62680;BME280;74249;40.528;44.706;2023-11-22T02:51:48;80420.38;;;18.97;36.11
62680;BME280;74249;40.528;44.706;2023-11-22T02:53:48;80428.56;;;19.05;36.21
62680;BME280;74249;40.528;44.706;2023-11-22T02:55:50;80423.91;;;19.06;36.07
62680;BME280;74249;40.528;44.706;2023-11-22T02:57:50;80425.25;;;19.07;35.79
62680;BME280;74249;40.528;44.706;2023-11-22T02:59:51;80425.88;;;19.05;36.06
62680;BME280;74249;40.528;44.706;2023-11-22T03:01:52;80428.56;;;19.05;36.06
62680;BME280;74249;40.528;44.706;2023-11-22T03:03:53;80423.22;;;19.05;36.01
62680;BME280;74249;40.528;44.706;2023-11-22T03:05:54;80434.56;;;19.06;36.13
62680;BME280;74249;40.528;44.706;2023-11-22T03:07:54;80431.88;;;19.06;36.06
62680;BME280;74249;40.528;44.706;2023-11-22T03:09:56;80444.53;;;19.05;36.07
62680;BME280;74249;40.528;44.706;2023-11-22T03:11:59;80444.53;;;19.05;35.89
62680;BME280;74249;40.528;44.706;2023-11-22T03:14:00;80449.16;;;19.05;36.04
62680;BME280;74249;40.528;44.706;2023-11-22T03:16:04;80447.81;;;19.03;36.02
62680;BME280;74249;40.528;44.706;2023-11-22T03:18:05;80438.53;;;19.05;36.05
62680;BME280;74249;40.528;44.706;2023-11-22T03:20:06;80446.44;;;19.02;36.31
62680;BME280;74249;40.528;44.706;2023-11-22T03:22:11;80462.44;;;19.02;36.23
62680;BME280;74249;40.528;44.706;2023-11-22T03:24:12;80465.16;;;19.05;36.22
62680;BME280;74249;40.528;44.706;2023-11-22T03:26:13;80462.41;;;19.00;36.01
62680;BME280;74249;40.528;44.706;2023-11-22T03:28:14;80465.16;;;19.05;36.08
62680;BME280;74249;40.528;44.706;2023-11-22T03:30:15;80458.47;;;19.03;35.84
62680;BME280;74249;40.528;44.706;2023-11-22T03:32:15;80462.44;;;19.02;36.01
62680;BME280;74249;40.528;44.706;2023-11-22T03:34:16;80471.78;;;19.03;36.05
62680;BME280;74249;40.528;44.706;2023-11-22T03:36:16;80467.75;;;19.02;36.01
62680;BME280;74249;40.528;44.706;2023-11-22T03:38:17;80472.44;;;19.02;35.99
62680;BME280;74249;40.528;44.706;2023-11-22T03:40:19;80477.13;;;19.03;35.76
62680;BME280;74249;40.528;44.706;2023-11-22T03:42:20;80481.78;;;19.03;35.99
62680;BME280;74249;40.528;44.706;2023-11-22T03:44:21;80467.75;;;19.02;36.19
62680;BME280;74249;40.528;44.706;2023-11-22T03:46:21;80471.78;;;19.03;36.11
62680;BME280;74249;40.528;44.706;2023-11-22T03:48:22;80465.09;;;19.02;35.83
62680;BME280;74249;40.528;44.706;2023-11-22T03:50:23;80463.13;;;19.03;36.02
62680;BME280;74249;40.528;44.706;2023-11-22T03:52:24;80447.81;;;19.03;35.97
62680;BME280;74249;40.528;44.706;2023-11-22T03:54:25;80432.53;;;19.04;35.79
62680;BME280;74249;40.528;44.706;2023-11-22T03:56:26;80421.81;;;19.02;35.93
62680;BME280;74249;40.528;44.706;2023-11-22T03:58:26;80417.84;;;19.03;35.85
62680;BME280;74249;40.528;44.706;2023-11-22T04:00:27;80415.19;;;19.03;35.80
62680;BME280;74249;40.528;44.706;2023-11-22T04:02:27;80410.50;;;19.01;35.48
62680;BME280;74249;40.528;44.706;2023-11-22T04:04:29;80410.53;;;19.03;35.69
62680;BME280;74249;40.528;44.706;2023-11-22T04:06:30;80418.47;;;19.01;35.81
62680;BME280;74249;40.528;44.706;2023-11-22T04:08:33;80413.16;;;19.01;35.49
62680;BME280;74249;40.528;44.706;2023-11-22T04:10:34;80425.78;;;19.01;35.16
62680;BME280;74249;40.528;44.706;2023-11-22T04:12:35;80407.81;;;19.01;35.35
62680;BME280;74249;40.528;44.706;2023-11-22T04:14:35;80403.84;;;19.02;35.66
62680;BME280;74249;40.528;44.706;2023-11-22T04:16:36;80417.13;;;19.00;35.03
62680;BME280;74249;40.528;44.706;2023-11-22T04:18:40;80427.78;;;19.00;35.31
62680;BME280;74249;40.528;44.706;2023-11-22T04:20:41;80460.41;;;19.01;35.66
62680;BME280;74249;40.528;44.706;2023-11-22T04:22:43;80489.06;;;19.02;35.69
62680;BME280;74249;40.528;44.706;2023-11-22T04:24:47;80508.34;;;19.01;35.37
62680;BME280;74249;40.528;44.706;2023-11-22T04:26:48;80519.00;;;19.01;35.51
62680;BME280;74249;40.528;44.706;2023-11-22T04:28:49;80502.38;;;19.00;35.70
62680;BME280;74249;40.528;44.706;2023-11-22T04:30:49;80501.66;;;19.00;35.52
62680;BME280;74249;40.528;44.706;2023-11-22T04:32:50;80531.03;;;19.02;35.80
62680;BME280;74249;40.528;44.706;2023-11-22T04:34:50;80542.34;;;19.02;35.75
62680;BME280;74249;40.528;44.706;2023-11-22T04:36:51;80559.69;;;19.03;36.04
62680;BME280;74249;40.528;44.706;2023-11-22T04:38:51;80551.69;;;19.01;35.71
62680;BME280;74249;40.528;44.706;2023-11-22T04:40:52;80538.38;;;19.03;35.61
62680;BME280;74249;40.528;44.706;2023-11-22T04:42:53;80567.03;;;19.03;36.14
62680;BME280;74249;40.528;44.706;2023-11-22T04:44:56;80563.72;;;19.05;35.93
62680;BME280;74249;40.528;44.706;2023-11-22T04:46:57;80568.38;;;19.04;35.67
62680;BME280;74249;40.528;44.706;2023-11-22T04:48:59;80557.09;;;19.06;35.83
62680;BME280;74249;40.528;44.706;2023-11-22T04:51:00;80554.44;;;19.06;35.90
62680;BME280;74249;40.528;44.706;2023-11-22T04:53:00;80559.75;;;19.06;35.67
62680;BME280;74249;40.528;44.706;2023-11-22T04:55:04;80553.13;;;19.07;35.66
62680;BME280;74249;40.528;44.706;2023-11-22T04:57:05;80547.13;;;19.06;35.69
62680;BME280;74249;40.528;44.706;2023-11-22T04:59:06;80536.47;;;19.06;35.67
62680;BME280;74249;40.528;44.706;2023-11-22T05:01:06;80554.44;;;19.06;36.08
62680;BME280;74249;40.528;44.706;2023-11-22T05:03:10;80545.66;;;19.01;35.49
62680;BME280;74249;40.528;44.706;2023-11-22T05:05:10;80545.03;;;19.02;35.49
62680;BME280;74249;40.528;44.706;2023-11-22T05:07:11;80549.03;;;19.03;35.98
62680;BME280;74249;40.528;44.706;2023-11-22T05:09:12;80541.03;;;19.01;35.72
62680;BME280;74249;40.528;44.706;2023-11-22T05:11:13;80555.63;;;19.00;35.58
62680;BME280;74249;40.528;44.706;2023-11-22T05:13:16;80554.28;;;18.99;35.79
62680;BME280;74249;40.528;44.706;2023-11-22T05:15:16;80566.22;;;18.98;35.66
62680;BME280;74249;40.528;44.706;2023-11-22T05:17:17;80570.19;;;18.97;35.89
62680;BME280;74249;40.528;44.706;2023-11-22T05:19:17;80575.47;;;18.95;35.60
62680;BME280;74249;40.528;44.706;2023-11-22T05:21:18;80579.41;;;18.92;35.87
62680;BME280;74249;40.528;44.706;2023-11-22T05:23:18;80589.34;;;18.92;35.82
62680;BME280;74249;40.528;44.706;2023-11-22T05:25:19;80583.28;;;18.89;35.62
62680;BME280;74249;40.528;44.706;2023-11-22T05:27:19;80592.56;;;18.88;35.47
62680;BME280;74249;40.528;44.706;2023-11-22T05:29:20;80588.50;;;18.85;35.53
62680;BME280;74249;40.528;44.706;2023-11-22T05:31:21;80589.13;;;18.83;35.64
62680;BME280;74249;40.528;44.706;2023-11-22T05:33:21;80583.75;;;18.81;35.61
62680;BME280;74249;40.528;44.706;2023-11-22T05:35:22;80579.66;;;18.78;35.38
62680;BME280;74249;40.528;44.706;2023-11-22T05:37:23;80567.59;;;18.75;35.36
62680;BME280;74249;40.528;44.706;2023-11-22T05:39:24;80570.88;;;18.74;35.44
62680;BME280;74249;40.528;44.706;2023-11-22T05:41:25;80580.22;;;18.75;35.49
62680;BME280;74249;40.528;44.706;2023-11-22T05:43:26;80574.16;;;18.72;35.53
62680;BME280;74249;40.528;44.706;2023-11-22T05:45:27;80574.81;;;18.70;35.43
62680;BME280;74249;40.528;44.706;2023-11-22T05:47:27;80574.81;;;18.70;35.77
62680;BME280;74249;40.528;44.706;2023-11-22T05:49:28;80570.72;;;18.67;35.45
62680;BME280;74249;40.528;44.706;2023-11-22T05:51:29;80585.31;;;18.66;35.41
62680;BME280;74249;40.528;44.706;2023-11-22T05:53:29;80583.94;;;18.63;35.47
62680;BME280;74249;40.528;44.706;2023-11-22T05:55:30;80582.56;;;18.62;35.32
62680;BME280;74249;40.528;44.706;2023-11-22T05:57:30;80587.81;;;18.60;35.24
62680;BME280;74249;40.528;44.706;2023-11-22T05:59:31;80609.06;;;18.58;35.47
62680;BME280;74249;40.528;44.706;2023-11-22T06:01:31;80608.31;;;18.55;35.38
62680;BME280;74249;40.528;44.706;2023-11-22T06:03:32;80614.94;;;18.54;35.45
62680;BME280;74249;40.528;44.706;2023-11-22T06:05:33;80624.25;;;18.53;35.31
62680;BME280;74249;40.528;44.706;2023-11-22T06:07:34;80619.50;;;18.50;35.30
62680;BME280;74249;40.528;44.706;2023-11-22T06:09:34;80628.09;;;18.48;35.40
62680;BME280;74249;40.528;44.706;2023-11-22T06:11:36;80634.03;;;18.47;35.36
62680;BME280;74249;40.528;44.706;2023-11-22T06:13:36;80648.63;;;18.46;35.59
62680;BME280;74249;40.528;44.706;2023-11-22T06:15:37;80633.97;;;18.45;35.62
62680;BME280;74249;40.528;44.706;2023-11-22T06:17:38;80641.97;;;18.45;35.59
62680;BME280;74249;40.528;44.706;2023-11-22T06:19:39;80635.25;;;18.44;35.84
62680;BME280;74249;40.528;44.706;2023-11-22T06:21:39;80632.56;;;18.42;35.57
62680;BME280;74249;40.528;44.706;2023-11-22T06:23:40;80634.53;;;18.41;35.60
62680;BME280;74249;40.528;44.706;2023-11-22T06:25:41;80635.91;;;18.42;35.65
62680;BME280;74249;40.528;44.706;2023-11-22T06:27:43;80645.81;;;18.39;35.53
62680;BME280;74249;40.528;44.706;2023-11-22T06:29:43;80643.16;;;18.39;35.43
62680;BME280;74249;40.528;44.706;2023-11-22T06:31:44;80645.13;;;18.39;35.47
62680;BME280;74249;40.528;44.706;2023-11-22T06:33:45;80637.75;;;18.37;35.50
62680;BME280;74249;40.528;44.706;2023-11-22T06:35:45;80647.03;;;18.36;35.53
62680;BME280;74249;40.528;44.706;2023-11-22T06:37:46;80637.72;;;18.35;35.25
62680;BME280;74249;40.528;44.706;2023-11-22T06:39:46;80634.97;;;18.33;35.50
62680;BME280;74249;40.528;44.706;2023-11-22T06:41:47;80638.22;;;18.30;35.57
62680;BME280;74249;40.528;44.706;2023-11-22T06:43:48;80637.50;;;18.29;35.55
62680;BME280;74249;40.528;44.706;2023-11-22T06:45:48;80639.50;;;18.29;35.70
62680;BME280;74249;40.528;44.706;2023-11-22T06:47:49;80628.16;;;18.28;35.72
62680;BME280;74249;40.528;44.706;2023-11-22T06:49:50;80638.75;;;18.26;35.73
62680;BME280;74249;40.528;44.706;2023-11-22T06:51:51;80636.09;;;18.26;35.73
62680;BME280;74249;40.528;44.706;2023-11-22T06:53:52;80633.44;;;18.26;36.02
62680;BME280;74249;40.528;44.706;2023-11-22T06:55:54;80631.44;;;18.27;35.89
62680;BME280;74249;40.528;44.706;2023-11-22T06:57:55;80628.13;;;18.26;35.87
62680;BME280;74249;40.528;44.706;2023-11-22T06:59:56;80627.44;;;18.26;35.94
62680;BME280;74249;40.528;44.706;2023-11-22T07:01:57;80634.13;;;18.27;35.79
62680;BME280;74249;40.528;44.706;2023-11-22T07:03:57;80632.09;;;18.25;35.94
62680;BME280;74249;40.528;44.706;2023-11-22T07:05:59;80630.78;;;18.26;36.05
62680;BME280;74249;40.528;44.706;2023-11-22T07:07:59;80630.03;;;18.23;35.67
62680;BME280;74249;40.528;44.706;2023-11-22T07:10:00;80631.38;;;18.24;35.75
62680;BME280;74249;40.528;44.706;2023-11-22T07:12:01;80628.00;;;18.22;35.62
62680;BME280;74249;40.528;44.706;2023-11-22T07:14:01;80633.31;;;18.22;35.61
62680;BME280;74249;40.528;44.706;2023-11-22T07:16:05;80630.59;;;18.20;35.55
62680;BME280;74249;40.528;44.706;2023-11-22T07:18:07;80623.91;;;18.19;35.82
62680;BME280;74249;40.528;44.706;2023-11-22T07:20:10;80623.91;;;18.19;35.79
62680;BME280;74249;40.528;44.706;2023-11-22T07:22:16;80630.47;;;18.16;35.71
62680;BME280;74249;40.528;44.706;2023-11-22T07:24:16;80633.13;;;18.16;35.88
62680;BME280;74249;40.528;44.706;2023-11-22T07:26:18;80619.09;;;18.13;35.97
62680;BME280;74249;40.528;44.706;2023-11-22T07:28:20;80632.41;;;18.13;35.93
62680;BME280;74249;40.528;44.706;2023-11-22T07:30:20;80634.50;;;18.17;36.00
62680;BME280;74249;40.528;44.706;2023-11-22T07:32:23;80630.47;;;18.16;36.24
62680;BME280;74249;40.528;44.706;2023-11-22T07:34:23;80635.78;;;18.16;36.03
62680;BME280;74249;40.528;44.706;2023-11-22T07:36:24;80637.78;;;18.15;36.20
62680;BME280;74249;40.528;44.706;2023-11-22T07:38:25;80645.06;;;18.15;35.81
62680;BME280;74249;40.528;44.706;2023-11-22T07:40:25;80649.72;;;18.14;35.57
62680;BME280;74249;40.528;44.706;2023-11-22T07:42:26;80653.03;;;18.15;35.69
62680;BME280;74249;40.528;44.706;2023-11-22T07:44:26;80651.00;;;18.13;35.77
62680;BME280;74249;40.528;44.706;2023-11-22T07:46:27;80656.34;;;18.13;35.59
62680;BME280;74249;40.528;44.706;2023-11-22T07:48:28;80650.94;;;18.11;35.86
62680;BME280;74249;40.528;44.706;2023-11-22T07:50:28;80642.28;;;18.11;35.71
62680;BME280;74249;40.528;44.706;2023-11-22T07:52:29;80650.91;;;18.09;35.77
62680;BME280;74249;40.528;44.706;2023-11-22T07:54:30;80662.22;;;18.10;35.84
62680;BME280;74249;40.528;44.706;2023-11-22T07:56:31;80654.22;;;18.10;35.84
62680;BME280;74249;40.528;44.706;2023-11-22T07:58:34;80652.94;;;18.11;35.97
62680;BME280;74249;40.528;44.706;2023-11-22T08:00:34;80648.91;;;18.10;35.96
62680;BME280;74249;40.528;44.706;2023-11-22T08:02:35;80648.91;;;18.10;35.82
62680;BME280;74249;40.528;44.706;2023-11-22T08:04:38;80650.22;;;18.08;35.91
62680;BME280;74249;40.528;44.706;2023-11-22T08:06:40;80641.56;;;18.08;36.06
62680;BME280;74249;40.528;44.706;2023-11-22T08:08:41;80644.88;;;18.08;35.81
62680;BME280;74249;40.528;44.706;2023-11-22T08:10:41;80640.88;;;18.07;35.62
62680;BME280;74249;40.528;44.706;2023-11-22T08:12:43;80648.84;;;18.07;35.69
62680;BME280;74249;40.528;44.706;2023-11-22T08:14:47;80646.19;;;18.07;35.73
62680;BME280;74249;40.528;44.706;2023-11-22T08:16:47;80651.50;;;18.07;35.81
62680;BME280;74249;40.528;44.706;2023-11-22T08:18:48;80633.44;;;18.04;35.75
62680;BME280;74249;40.528;44.706;2023-11-22T08:20:48;80644.81;;;18.06;35.83
62680;BME280;74249;40.528;44.706;2023-11-22T08:22:50;80638.16;;;18.05;35.88
62680;BME280;74249;40.528;44.706;2023-11-22T08:24:51;80642.16;;;18.06;36.19
62680;BME280;74249;40.528;44.706;2023-11-22T08:26:51;80638.19;;;18.07;36.09
62680;BME280;74249;40.528;44.706;2023-11-22T08:28:53;80631.59;;;18.08;36.53
62680;BME280;74249;40.528;44.706;2023-11-22T08:30:54;80638.28;;;18.10;36.32
62680;BME280;74249;40.528;44.706;2023-11-22T08:32:56;80641.66;;;18.12;36.34
62680;BME280;74249;40.528;44.706;2023-11-22T08:34:57;80637.03;;;18.13;36.38
62680;BME280;74249;40.528;44.706;2023-11-22T08:36:58;80635.72;;;18.14;36.40
62680;BME280;74249;40.528;44.706;2023-11-22T08:39:00;80623.13;;;18.14;36.29
62680;BME280;74249;40.528;44.706;2023-11-22T08:41:02;80631.84;;;18.17;36.16
62680;BME280;74249;40.528;44.706;2023-11-22T08:43:03;80618.53;;;18.17;36.12
62680;BME280;74249;40.528;44.706;2023-11-22T08:45:07;80617.25;;;18.18;36.28
62680;BME280;74249;40.528;44.706;2023-11-22T08:47:08;80617.97;;;18.20;36.15
62680;BME280;74249;40.528;44.706;2023-11-22T08:49:09;80620.00;;;18.22;36.10
62680;BME280;74249;40.528;44.706;2023-11-22T08:51:11;80618.09;;;18.24;36.02
62680;BME280;74249;40.528;44.706;2023-11-22T08:53:13;80612.09;;;18.24;35.97
62680;BME280;74249;40.528;44.706;2023-11-22T08:55:13;80612.16;;;18.26;36.02
62680;BME280;74249;40.528;44.706;2023-11-22T08:57:14;80606.88;;;18.28;36.13
62680;BME280;74249;40.528;44.706;2023-11-22T08:59:15;80599.59;;;18.29;36.03
62680;BME280;74249;40.528;44.706;2023-11-22T09:01:16;80592.34;;;18.31;36.09
62680;BME280;74249;40.528;44.706;2023-11-22T09:03:19;80592.41;;;18.33;36.37
62680;BME280;74249;40.528;44.706;2023-11-22T09:05:20;80600.38;;;18.33;36.12
62680;BME280;74249;40.528;44.706;2023-11-22T09:07:21;80597.84;;;18.37;36.10
62680;BME280;74249;40.528;44.706;2023-11-22T09:09:24;80599.13;;;18.36;36.10
62680;BME280;74249;40.528;44.706;2023-11-22T09:11:31;80605.81;;;18.37;36.27
62680;BME280;74249;40.528;44.706;2023-11-22T09:13:34;80607.88;;;18.39;36.46
62680;BME280;74249;40.528;44.706;2023-11-22T09:15:35;80616.59;;;18.42;35.95
62680;BME280;74249;40.528;44.706;2023-11-22T09:17:40;80603.84;;;18.38;36.06
62680;BME280;74249;40.528;44.706;2023-11-22T09:19:43;80605.25;;;18.41;36.19
62680;BME280;74249;40.528;44.706;2023-11-22T09:21:44;80608.66;;;18.44;35.88
62680;BME280;74249;40.528;44.706;2023-11-22T09:23:44;80608.66;;;18.44;35.99
62680;BME280;74249;40.528;44.706;2023-11-22T09:25:45;80600.72;;;18.46;35.73
62680;BME280;74249;40.528;44.706;2023-11-22T09:27:47;80606.06;;;18.46;35.63
62680;BME280;74249;40.528;44.706;2023-11-22T09:29:49;80600.78;;;18.48;35.89
62680;BME280;74249;40.528;44.706;2023-11-22T09:31:50;80599.50;;;18.49;35.85
62680;BME280;74249;40.528;44.706;2023-11-22T09:33:52;80606.19;;;18.50;35.71
62680;BME280;74249;40.528;44.706;2023-11-22T09:35:52;80608.84;;;18.50;35.76
62680;BME280;74249;40.528;44.706;2023-11-22T09:37:53;80607.53;;;18.51;35.42
62680;BME280;74249;40.528;44.706;2023-11-22T09:39:54;80610.88;;;18.51;35.34
62680;BME280;74249;40.528;44.706;2023-11-22T09:41:55;80614.91;;;18.52;35.72
62680;BME280;74249;40.528;44.706;2023-11-22T09:43:56;80617.59;;;18.54;35.37
62680;BME280;74249;40.528;44.706;2023-11-22T09:45:58;80617.00;;;18.56;35.42
62680;BME280;74249;40.528;44.706;2023-11-22T09:47:59;80617.66;;;18.57;35.20
62680;BME280;74249;40.528;44.706;2023-11-22T09:50:01;80619.66;;;18.56;35.37
62680;BME280;74249;40.528;44.706;2023-11-22T09:52:08;80610.97;;;18.55;35.29
62680;BME280;74249;40.528;44.706;2023-11-22T09:54:15;80593.03;;;18.56;35.09
62680;BME280;74249;40.528;44.706;2023-11-22T09:56:16;80593.09;;;18.58;34.92
62680;BME280;74249;40.528;44.706;2023-11-22T09:58:19;80617.16;;;18.62;35.21
62680;BME280;74249;40.528;44.706;2023-11-22T10:00:22;80607.19;;;18.63;35.17
62680;BME280;74249;40.528;44.706;2023-11-22T10:02:27;80611.91;;;18.64;35.24
62680;BME280;74249;40.528;44.706;2023-11-22T10:04:28;80603.97;;;18.66;35.21
62680;BME280;74249;40.528;44.706;2023-11-22T10:06:32;80603.34;;;18.68;35.30
62680;BME280;74249;40.528;44.706;2023-11-22T10:08:35;80620.06;;;18.70;35.34
62680;BME280;74249;40.528;44.706;2023-11-22T10:10:37;80622.78;;;18.73;34.84
62680;BME280;74249;40.528;44.706;2023-11-22T10:12:38;80617.50;;;18.75;34.75
62680;BME280;74249;40.528;44.706;2023-11-22T10:14:40;80620.16;;;18.75;34.91
62680;BME280;74249;40.528;44.706;2023-11-22T10:16:41;80615.63;;;18.79;34.94
62680;BME280;74249;40.528;44.706;2023-11-22T10:18:46;80623.69;;;18.81;35.01
62680;BME280;74249;40.528;44.706;2023-11-22T10:20:49;80627.81;;;18.86;35.05
62680;BME280;74249;40.528;44.706;2023-11-22T10:22:50;80629.19;;;18.87;34.77
62680;BME280;74249;40.528;44.706;2023-11-22T10:24:50;80629.91;;;18.90;35.06
62680;BME280;74249;40.528;44.706;2023-11-22T10:26:53;80620.00;;;18.93;34.89
62680;BME280;74249;40.528;44.706;2023-11-22T10:28:57;80607.44;;;18.95;35.31
62680;BME280;74249;40.528;44.706;2023-11-22T10:30:57;80624.78;;;18.96;34.94
62680;BME280;74249;40.528;44.706;2023-11-22T10:32:58;80621.50;;;18.98;35.02
62680;BME280;74249;40.528;44.706;2023-11-22T10:34:58;80621.59;;;19.02;35.19